sensor_id;sensor_type;location;lat;lon;timestamp;pressure;altitude;pressure_sealevel;temperature;humidity
54042;BME280;41156;51.508;5.406;2023-11-19T00:02:04;100790.88;;;12.34;100.00
54042;BME280;41156;51.508;5.406;2023-11-19T00:05:05;100782.53;;;12.36;100.00
54042;BME280;41156;51.508;5.406;2023-11-19T00:08:09;100779.81;;;12.36;100.00
54042;BME280;41156;51.508;5.406;2023-11-19T00:11:09;100776.03;;;12.37;100.00
54042;BME280;41156;51.508;5.406;2023-11-19T00:14:09;100778.28;;;12.40;100.00
54042;BME280;41156;51.508;5.406;2023-11-19T00:17:10;100761.22;;;12.39;100.00
54042;BME280;41156;51.508;5.406;2023-11-19T00:20:14;100744.13;;;12.39;100.00
54042;BME280;41156;51.508;5.406;2023-11-19T00:23:14;100736.00;;;12.39;100.00
54042;BME280;41156;51.508;5.406;2023-11-19T00:26:16;100730.59;;;12.39;100.00
54042;BME280;41156;51.508;5.406;2023-11-19T00:29:16;100727.03;;;12.38;100.00
54042;BME280;41156;51.508;5.406;2023-11-19T00:32:18;100716.19;;;12.38;100.00
54042;BME280;41156;51.508;5.406;2023-11-19T00:35:19;100716.41;;;12.37;100.00
54042;BME280;41156;51.508;5.406;2023-11-19T00:38:19;100713.72;;;12.37;100.00
54042;BME280;41156;51.508;5.406;2023-11-19T00:41:19;100719.59;;;12.34;100.00
54042;BME280;41156;51.508;5.406;2023-11-19T00:44:20;100733.13;;;12.34;100.00
54042;BME280;41156;51.508;5.406;2023-11-19T00:47:20;100731.28;;;12.34;100.00
54042;BME280;41156;51.508;5.406;2023-11-19T00:50:20;100725.00;;;12.34;100.00
54042;BME280;41156;51.508;5.406;2023-11-19T00:53:20;100730.81;;;12.37;100.00
54042;BME280;41156;51.508;5.406;2023-11-19T00:56:21;100723.38;;;12.33;100.00
54042;BME280;41156;51.508;5.406;2023-11-19T00:59:21;100728.19;;;12.31;100.00
54042;BME280;41156;51.508;5.406;2023-11-19T01:02:21;100729.25;;;12.30;100.00
54042;BME280;41156;51.508;5.406;2023-11-19T01:05:22;100728.78;;;12.33;100.00
54042;BME280;41156;51.508;5.406;2023-11-19T01:08:22;100724.28;;;12.27;100.00
54042;BME280;41156;51.508;5.406;2023-11-19T01:11:25;100731.00;;;12.24;100.00
54042;BME280;41156;51.508;5.406;2023-11-19T01:14:25;100750.19;;;12.23;100.00
54042;BME280;41156;51.508;5.406;2023-11-19T01:17:25;100734.53;;;12.25;100.00
54042;BME280;41156;51.508;5.406;2023-11-19T01:20:26;100734.97;;;12.21;100.00
54042;BME280;41156;51.508;5.406;2023-11-19T01:23:26;100720.38;;;12.23;100.00
54042;BME280;41156;51.508;5.406;2023-11-19T01:26:26;100715.78;;;12.23;100.00
54042;BME280;41156;51.508;5.406;2023-11-19T01:29:27;100707.66;;;12.23;100.00
54042;BME280;41156;51.508;5.406;2023-11-19T01:32:27;100699.28;;;12.25;100.00
54042;BME280;41156;51.508;5.406;2023-11-19T01:35:27;100702.25;;;12.23;100.00
54042;BME280;41156;51.508;5.406;2023-11-19T01:38:27;100706.22;;;12.20;100.00
54042;BME280;41156;51.508;5.406;2023-11-19T01:41:28;100706.06;;;12.15;100.00
54042;BME280;41156;51.508;5.406;2023-11-19T01:44:28;100725.50;;;12.12;100.00
54042;BME280;41156;51.508;5.406;2023-11-19T01:47:30;100722.78;;;12.12;100.00
54042;BME280;41156;51.508;5.406;2023-11-19T01:50:31;100726.94;;;12.15;100.00
54042;BME280;41156;51.508;5.406;2023-11-19T01:53:34;100716.91;;;12.15;100.00
54042;BME280;41156;51.508;5.406;2023-11-19T01:56:37;100726.25;;;12.19;100.00
54042;BME280;41156;51.508;5.406;2023-11-19T01:59:38;100727.06;;;12.20;100.00
54042;BME280;41156;51.508;5.406;2023-11-19T02:02:43;100726.47;;;12.18;100.00
54042;BME280;41156;51.508;5.406;2023-11-19T02:05:43;100716.31;;;12.13;100.00
54042;BME280;41156;51.508;5.406;2023-11-19T02:08:43;100715.28;;;12.14;100.00
54042;BME280;41156;51.508;5.406;2023-11-19T02:11:44;100720.47;;;12.16;100.00
54042;BME280;41156;51.508;5.406;2023-11-19T02:14:44;100719.63;;;12.15;100.00
54042;BME280;41156;51.508;5.406;2023-11-19T02:17:45;100701.97;;;12.13;100.00
54042;BME280;41156;51.508;5.406;2023-11-19T02:20:45;100701.97;;;12.13;100.00
54042;BME280;41156;51.508;5.406;2023-11-19T02:23:46;100701.47;;;12.04;100.00
54042;BME280;41156;51.508;5.406;2023-11-19T02:29:57;100702.25;;;11.86;100.00
54042;BME280;41156;51.508;5.406;2023-11-19T02:32:58;100698.19;;;11.77;100.00
54042;BME280;41156;51.508;5.406;2023-11-19T02:35:59;100697.00;;;11.73;100.00
54042;BME280;41156;51.508;5.406;2023-11-19T02:38:59;100701.88;;;11.64;100.00
54042;BME280;41156;51.508;5.406;2023-11-19T02:42:00;100690.31;;;11.57;100.00
54042;BME280;41156;51.508;5.406;2023-11-19T02:45:00;100682.03;;;11.52;100.00
54042;BME280;41156;51.508;5.406;2023-11-19T02:48:00;100683.34;;;11.49;100.00
54042;BME280;41156;51.508;5.406;2023-11-19T02:51:06;100687.97;;;11.42;100.00
54042;BME280;41156;51.508;5.406;2023-11-19T02:54:09;100701.50;;;11.42;100.00
54042;BME280;41156;51.508;5.406;2023-11-19T02:57:10;100699.06;;;11.34;100.00
54042;BME280;41156;51.508;5.406;2023-11-19T03:00:19;100697.28;;;11.27;100.00
54042;BME280;41156;51.508;5.406;2023-11-19T03:03:24;100684.41;;;11.23;100.00
54042;BME280;41156;51.508;5.406;2023-11-19T03:06:28;100690.06;;;11.21;100.00
54042;BME280;41156;51.508;5.406;2023-11-19T03:09:29;100697.16;;;11.16;100.00
54042;BME280;41156;51.508;5.406;2023-11-19T03:12:29;100683.88;;;11.14;100.00
54042;BME280;41156;51.508;5.406;2023-11-19T03:15:30;100693.47;;;11.10;100.00
54042;BME280;41156;51.508;5.406;2023-11-19T03:18:31;100701.00;;;11.08;100.00
54042;BME280;41156;51.508;5.406;2023-11-19T03:21:32;100704.75;;;11.07;100.00
54042;BME280;41156;51.508;5.406;2023-11-19T03:24:32;100703.91;;;11.06;100.00
54042;BME280;41156;51.508;5.406;2023-11-19T03:27:32;100699.97;;;11.02;100.00
54042;BME280;41156;51.508;5.406;2023-11-19T03:30:34;100706.47;;;11.01;100.00
54042;BME280;41156;51.508;5.406;2023-11-19T03:33:34;100704.41;;;10.97;100.00
54042;BME280;41156;51.508;5.406;2023-11-19T03:36:34;100706.28;;;10.96;100.00
54042;BME280;41156;51.508;5.406;2023-11-19T03:39:35;100708.56;;;10.99;100.00
54042;BME280;41156;51.508;5.406;2023-11-19T03:42:35;100698.94;;;11.03;100.00
54042;BME280;41156;51.508;5.406;2023-11-19T03:45:35;100694.75;;;11.07;100.00
54042;BME280;41156;51.508;5.406;2023-11-19T03:48:36;100709.31;;;11.06;100.00
54042;BME280;41156;51.508;5.406;2023-11-19T03:51:36;100707.28;;;11.02;100.00
54042;BME280;41156;51.508;5.406;2023-11-19T03:54:36;100709.00;;;10.96;100.00
54042;BME280;41156;51.508;5.406;2023-11-19T03:57:37;100709.88;;;10.90;100.00
54042;BME280;41156;51.508;5.406;2023-11-19T04:00:37;100707.00;;;10.85;100.00
54042;BME280;41156;51.508;5.406;2023-11-19T04:03:37;100712.03;;;10.81;100.00
54042;BME280;41156;51.508;5.406;2023-11-19T04:06:38;100712.06;;;10.74;100.00
54042;BME280;41156;51.508;5.406;2023-11-19T04:09:38;100707.94;;;10.72;100.00
54042;BME280;41156;51.508;5.406;2023-11-19T04:12:38;100702.13;;;10.68;100.00
54042;BME280;41156;51.508;5.406;2023-11-19T04:15:38;100714.19;;;10.72;100.00
54042;BME280;41156;51.508;5.406;2023-11-19T04:18:39;100723.72;;;10.75;100.00
54042;BME280;41156;51.508;5.406;2023-11-19T04:21:42;100706.25;;;10.78;100.00
54042;BME280;41156;51.508;5.406;2023-11-19T04:24:42;100721.16;;;10.80;100.00
54042;BME280;41156;51.508;5.406;2023-11-19T04:27:44;100723.81;;;10.87;100.00
54042;BME280;41156;51.508;5.406;2023-11-19T04:30:44;100709.06;;;10.89;100.00
54042;BME280;41156;51.508;5.406;2023-11-19T04:33:44;100720.09;;;10.88;100.00
54042;BME280;41156;51.508;5.406;2023-11-19T04:36:45;100718.25;;;10.82;100.00
54042;BME280;41156;51.508;5.406;2023-11-19T04:39:45;100724.31;;;10.77;100.00
54042;BME280;41156;51.508;5.406;2023-11-19T04:42:46;100712.50;;;10.71;100.00
54042;BME280;41156;51.508;5.406;2023-11-19T04:45:46;100716.88;;;10.72;100.00
54042;BME280;41156;51.508;5.406;2023-11-19T04:48:46;100720.63;;;10.71;100.00
54042;BME280;41156;51.508;5.406;2023-11-19T04:51:47;100730.41;;;10.72;100.00
54042;BME280;41156;51.508;5.406;2023-11-19T04:54:48;100729.94;;;10.76;100.00
54042;BME280;41156;51.508;5.406;2023-11-19T04:57:48;100731.22;;;10.73;100.00
54042;BME280;41156;51.508;5.406;2023-11-19T05:00:48;100726.03;;;10.71;100.00
54042;BME280;41156;51.508;5.406;2023-11-19T05:03:48;100735.00;;;10.65;100.00
54042;BME280;41156;51.508;5.406;2023-11-19T05:06:49;100744.56;;;10.68;100.00
54042;BME280;41156;51.508;5.406;2023-11-19T05:09:49;100737.91;;;10.64;100.00
54042;BME280;41156;51.508;5.406;2023-11-19T05:12:49;100742.94;;;10.60;100.00
54042;BME280;41156;51.508;5.406;2023-11-19T05:15:50;100745.47;;;10.55;100.00
54042;BME280;41156;51.508;5.406;2023-11-19T05:18:50;100744.03;;;10.52;100.00
54042;BME280;41156;51.508;5.406;2023-11-19T05:21:50;100745.66;;;10.53;100.00
54042;BME280;41156;51.508;5.406;2023-11-19T05:24:52;100740.91;;;10.49;100.00
54042;BME280;41156;51.508;5.406;2023-11-19T05:27:53;100732.81;;;10.49;100.00
54042;BME280;41156;51.508;5.406;2023-11-19T05:30:53;100744.69;;;10.48;100.00
54042;BME280;41156;51.508;5.406;2023-11-19T05:33:53;100748.84;;;10.44;100.00
54042;BME280;41156;51.508;5.406;2023-11-19T05:36:54;100744.94;;;10.40;100.00
54042;BME280;41156;51.508;5.406;2023-11-19T05:39:54;100745.34;;;10.36;100.00
54042;BME280;41156;51.508;5.406;2023-11-19T05:42:54;100751.78;;;10.35;100.00
54042;BME280;41156;51.508;5.406;2023-11-19T05:45:55;100757.63;;;10.32;100.00
54042;BME280;41156;51.508;5.406;2023-11-19T05:48:55;100745.78;;;10.33;100.00
54042;BME280;41156;51.508;5.406;2023-11-19T05:51:55;100745.78;;;10.33;100.00
54042;BME280;41156;51.508;5.406;2023-11-19T05:54:56;100746.81;;;10.32;100.00
54042;BME280;41156;51.508;5.406;2023-11-19T05:57:56;100756.97;;;10.30;100.00
54042;BME280;41156;51.508;5.406;2023-11-19T06:00:56;100751.41;;;10.25;100.00
54042;BME280;41156;51.508;5.406;2023-11-19T06:03:57;100749.75;;;10.24;100.00
54042;BME280;41156;51.508;5.406;2023-11-19T06:06:57;100756.41;;;10.22;100.00
54042;BME280;41156;51.508;5.406;2023-11-19T06:09:57;100751.22;;;10.20;100.00
54042;BME280;41156;51.508;5.406;2023-11-19T06:12:58;100753.69;;;10.22;100.00
54042;BME280;41156;51.508;5.406;2023-11-19T06:15:59;100731.50;;;10.19;100.00
54042;BME280;41156;51.508;5.406;2023-11-19T06:19:00;100747.09;;;10.17;100.00
54042;BME280;41156;51.508;5.406;2023-11-19T06:22:00;100745.25;;;10.11;100.00
54042;BME280;41156;51.508;5.406;2023-11-19T06:25:00;100758.13;;;10.09;100.00
54042;BME280;41156;51.508;5.406;2023-11-19T06:28:01;100760.41;;;10.06;100.00
54042;BME280;41156;51.508;5.406;2023-11-19T06:31:01;100757.31;;;10.02;100.00
54042;BME280;41156;51.508;5.406;2023-11-19T06:34:02;100746.94;;;9.99;100.00
54042;BME280;41156;51.508;5.406;2023-11-19T06:37:02;100753.19;;;9.99;100.00
54042;BME280;41156;51.508;5.406;2023-11-19T06:40:04;100752.13;;;10.00;100.00
54042;BME280;41156;51.508;5.406;2023-11-19T06:43:05;100747.78;;;9.99;100.00
54042;BME280;41156;51.508;5.406;2023-11-19T06:46:18;100742.59;;;9.98;100.00
54042;BME280;41156;51.508;5.406;2023-11-19T06:49:18;100749.44;;;9.94;100.00
54042;BME280;41156;51.508;5.406;2023-11-19T06:52:19;100749.44;;;9.94;100.00
54042;BME280;41156;51.508;5.406;2023-11-19T06:55:19;100753.41;;;9.91;100.00
54042;BME280;41156;51.508;5.406;2023-11-19T06:58:20;100770.44;;;9.92;100.00
54042;BME280;41156;51.508;5.406;2023-11-19T07:01:20;100782.47;;;9.96;100.00
54042;BME280;41156;51.508;5.406;2023-11-19T07:04:21;100777.28;;;9.94;100.00
54042;BME280;41156;51.508;5.406;2023-11-19T07:07:21;100774.59;;;9.94;100.00
54042;BME280;41156;51.508;5.406;2023-11-19T07:10:22;100782.25;;;9.91;100.00
54042;BME280;41156;51.508;5.406;2023-11-19T07:13:22;100788.09;;;9.88;100.00
54042;BME280;41156;51.508;5.406;2023-11-19T07:16:22;100797.22;;;9.87;100.00
54042;BME280;41156;51.508;5.406;2023-11-19T07:19:22;100797.84;;;9.89;100.00
54042;BME280;41156;51.508;5.406;2023-11-19T07:22:23;100809.47;;;9.89;100.00
54042;BME280;41156;51.508;5.406;2023-11-19T07:25:24;100813.00;;;9.90;100.00
54042;BME280;41156;51.508;5.406;2023-11-19T07:28:24;100820.03;;;9.91;100.00
54042;BME280;41156;51.508;5.406;2023-11-19T07:31:28;100817.13;;;9.92;100.00
54042;BME280;41156;51.508;5.406;2023-11-19T07:34:28;100824.59;;;9.97;100.00
54042;BME280;41156;51.508;5.406;2023-11-19T07:37:29;100821.28;;;10.02;100.00
54042;BME280;41156;51.508;5.406;2023-11-19T07:40:29;100820.00;;;10.04;100.00
54042;BME280;41156;51.508;5.406;2023-11-19T07:43:30;100820.22;;;10.09;100.00
54042;BME280;41156;51.508;5.406;2023-11-19T07:46:30;100818.34;;;10.10;100.00
54042;BME280;41156;51.508;5.406;2023-11-19T07:49:32;100811.28;;;10.09;100.00
54042;BME280;41156;51.508;5.406;2023-11-19T07:52:32;100811.69;;;10.12;100.00
54042;BME280;41156;51.508;5.406;2023-11-19T07:55:34;100803.38;;;10.14;100.00
54042;BME280;41156;51.508;5.406;2023-11-19T07:58:34;100811.47;;;10.14;100.00
54042;BME280;41156;51.508;5.406;2023-11-19T08:01:37;100811.03;;;10.17;100.00
54042;BME280;41156;51.508;5.406;2023-11-19T08:04:38;100811.44;;;10.21;100.00
54042;BME280;41156;51.508;5.406;2023-11-19T08:07:40;100823.50;;;10.25;100.00
54042;BME280;41156;51.508;5.406;2023-11-19T08:10:40;100824.94;;;10.27;100.00
54042;BME280;41156;51.508;5.406;2023-11-19T08:13:41;100824.09;;;10.27;100.00
54042;BME280;41156;51.508;5.406;2023-11-19T08:16:42;100820.38;;;10.34;100.00
54042;BME280;41156;51.508;5.406;2023-11-19T08:19:42;100819.97;;;10.38;100.00
54042;BME280;41156;51.508;5.406;2023-11-19T08:22:43;100823.88;;;10.42;100.00
54042;BME280;41156;51.508;5.406;2023-11-19T08:25:45;100826.97;;;10.45;100.00
54042;BME280;41156;51.508;5.406;2023-11-19T08:28:46;100821.97;;;10.49;100.00
54042;BME280;41156;51.508;5.406;2023-11-19T08:31:46;100825.09;;;10.52;100.00
54042;BME280;41156;51.508;5.406;2023-11-19T08:34:46;100824.25;;;10.52;100.00
54042;BME280;41156;51.508;5.406;2023-11-19T08:37:47;100821.72;;;10.57;100.00
54042;BME280;41156;51.508;5.406;2023-11-19T08:40:47;100822.97;;;10.61;100.00
54042;BME280;41156;51.508;5.406;2023-11-19T08:43:47;100824.16;;;10.65;100.00
54042;BME280;41156;51.508;5.406;2023-11-19T08:46:48;100823.91;;;10.73;100.00
54042;BME280;41156;51.508;5.406;2023-11-19T08:49:52;100821.59;;;10.77;100.00
54042;BME280;41156;51.508;5.406;2023-11-19T08:52:52;100827.81;;;10.84;100.00
54042;BME280;41156;51.508;5.406;2023-11-19T08:55:53;100830.88;;;10.95;100.00
54042;BME280;41156;51.508;5.406;2023-11-19T08:58:53;100830.22;;;10.99;100.00
54042;BME280;41156;51.508;5.406;2023-11-19T09:01:53;100829.34;;;11.05;100.00
54042;BME280;41156;51.508;5.406;2023-11-19T09:04:54;100820.78;;;11.08;100.00
54042;BME280;41156;51.508;5.406;2023-11-19T09:07:54;100829.06;;;11.14;100.00
54042;BME280;41156;51.508;5.406;2023-11-19T09:10:54;100831.09;;;11.25;100.00
54042;BME280;41156;51.508;5.406;2023-11-19T09:13:55;100832.69;;;11.33;100.00
54042;BME280;41156;51.508;5.406;2023-11-19T09:16:55;100830.53;;;11.41;100.00
54042;BME280;41156;51.508;5.406;2023-11-19T09:19:56;100826.69;;;11.56;100.00
54042;BME280;41156;51.508;5.406;2023-11-19T09:22:56;100824.91;;;11.68;100.00
54042;BME280;41156;51.508;5.406;2023-11-19T09:25:56;100825.22;;;11.78;100.00
54042;BME280;41156;51.508;5.406;2023-11-19T09:28:57;100819.94;;;11.83;100.00
54042;BME280;41156;51.508;5.406;2023-11-19T09:31:57;100814.28;;;11.92;100.00
54042;BME280;41156;51.508;5.406;2023-11-19T09:34:57;100814.28;;;11.92;100.00
54042;BME280;41156;51.508;5.406;2023-11-19T09:37:58;100813.59;;;11.96;100.00
54042;BME280;41156;51.508;5.406;2023-11-19T09:40:59;100816.03;;;12.05;100.00
54042;BME280;41156;51.508;5.406;2023-11-19T09:44:02;100824.44;;;12.15;100.00
54042;BME280;41156;51.508;5.406;2023-11-19T09:47:02;100814.28;;;12.29;100.00
54042;BME280;41156;51.508;5.406;2023-11-19T09:50:04;100827.06;;;12.40;100.00
54042;BME280;41156;51.508;5.406;2023-11-19T09:53:05;100824.50;;;12.45;100.00
54042;BME280;41156;51.508;5.406;2023-11-19T09:56:07;100830.91;;;12.51;100.00
54042;BME280;41156;51.508;5.406;2023-11-19T09:59:10;100832.00;;;12.62;100.00
54042;BME280;41156;51.508;5.406;2023-11-19T10:02:11;100815.66;;;12.68;100.00
54042;BME280;41156;51.508;5.406;2023-11-19T10:05:12;100817.78;;;12.66;100.00
54042;BME280;41156;51.508;5.406;2023-11-19T10:08:14;100817.53;;;12.68;100.00
54042;BME280;41156;51.508;5.406;2023-11-19T10:11:17;100814.41;;;12.83;100.00
54042;BME280;41156;51.508;5.406;2023-11-19T10:14:20;100807.72;;;12.97;100.00
54042;BME280;41156;51.508;5.406;2023-11-19T10:17:33;100806.53;;;12.93;100.00
54042;BME280;41156;51.508;5.406;2023-11-19T10:20:37;100811.75;;;12.94;100.00
54042;BME280;41156;51.508;5.406;2023-11-19T10:23:48;100822.72;;;13.00;100.00
54042;BME280;41156;51.508;5.406;2023-11-19T10:26:50;100826.47;;;12.99;100.00
54042;BME280;41156;51.508;5.406;2023-11-19T10:29:50;100813.53;;;13.01;100.00
54042;BME280;41156;51.508;5.406;2023-11-19T10:33:08;100815.72;;;12.92;100.00
54042;BME280;41156;51.508;5.406;2023-11-19T10:36:09;100821.28;;;12.97;100.00
54042;BME280;41156;51.508;5.406;2023-11-19T10:39:10;100814.91;;;12.91;100.00
54042;BME280;41156;51.508;5.406;2023-11-19T10:42:19;100810.50;;;12.78;100.00
54042;BME280;41156;51.508;5.406;2023-11-19T10:45:23;100807.59;;;12.92;100.00
54042;BME280;41156;51.508;5.406;2023-11-19T10:48:26;100808.97;;;13.13;100.00
54042;BME280;41156;51.508;5.406;2023-11-19T10:51:28;100824.09;;;13.21;100.00
54042;BME280;41156;51.508;5.406;2023-11-19T10:54:30;100821.84;;;13.29;100.00
54042;BME280;41156;51.508;5.406;2023-11-19T10:57:32;100827.44;;;13.35;100.00
54042;BME280;41156;51.508;5.406;2023-11-19T11:00:51;100820.47;;;13.39;100.00
54042;BME280;41156;51.508;5.406;2023-11-19T11:03:53;100812.47;;;13.56;100.00
54042;BME280;41156;51.508;5.406;2023-11-19T11:06:58;100811.50;;;13.50;100.00
54042;BME280;41156;51.508;5.406;2023-11-19T11:09:59;100808.44;;;13.46;100.00
54042;BME280;41156;51.508;5.406;2023-11-19T11:13:03;100803.81;;;13.35;100.00
54042;BME280;41156;51.508;5.406;2023-11-19T11:16:05;100804.97;;;13.27;100.00
54042;BME280;41156;51.508;5.406;2023-11-19T11:19:08;100798.81;;;13.20;100.00
54042;BME280;41156;51.508;5.406;2023-11-19T11:22:10;100796.41;;;13.00;100.00
54042;BME280;41156;51.508;5.406;2023-11-19T11:25:27;100796.84;;;12.85;100.00
54042;BME280;41156;51.508;5.406;2023-11-19T11:28:40;100798.84;;;12.78;100.00
54042;BME280;41156;51.508;5.406;2023-11-19T11:31:52;100804.22;;;12.66;100.00
54042;BME280;41156;51.508;5.406;2023-11-19T11:35:26;100797.91;;;12.54;100.00
54042;BME280;41156;51.508;5.406;2023-11-19T11:38:33;100788.91;;;12.42;100.00
54042;BME280;41156;51.508;5.406;2023-11-19T11:41:36;100779.19;;;12.34;100.00
54042;BME280;41156;51.508;5.406;2023-11-19T11:45:02;100785.97;;;12.43;100.00
54042;BME280;41156;51.508;5.406;2023-11-19T11:48:08;100774.31;;;12.73;100.00
54042;BME280;41156;51.508;5.406;2023-11-19T11:51:10;100781.09;;;12.94;100.00
54042;BME280;41156;51.508;5.406;2023-11-19T11:57:22;100767.56;;;13.06;100.00
54042;BME280;41156;51.508;5.406;2023-11-19T12:03:31;100778.94;;;13.38;100.00
54042;BME280;41156;51.508;5.406;2023-11-19T12:06:32;100772.56;;;13.56;100.00
54042;BME280;41156;51.508;5.406;2023-11-19T12:09:33;100774.69;;;13.66;100.00
54042;BME280;41156;51.508;5.406;2023-11-19T12:12:34;100769.72;;;13.75;100.00
54042;BME280;41156;51.508;5.406;2023-11-19T12:18:56;100756.63;;;13.72;100.00
54042;BME280;41156;51.508;5.406;2023-11-19T12:21:58;100749.19;;;13.67;100.00
54042;BME280;41156;51.508;5.406;2023-11-19T12:24:59;100749.78;;;13.57;100.00
54042;BME280;41156;51.508;5.406;2023-11-19T12:28:00;100752.59;;;13.50;100.00
54042;BME280;41156;51.508;5.406;2023-11-19T12:31:08;100741.75;;;13.39;100.00
54042;BME280;41156;51.508;5.406;2023-11-19T12:34:11;100743.84;;;13.25;100.00
54042;BME280;41156;51.508;5.406;2023-11-19T12:37:12;100758.09;;;13.08;100.00
54042;BME280;41156;51.508;5.406;2023-11-19T12:43:23;100758.31;;;12.95;100.00
54042;BME280;41156;51.508;5.406;2023-11-19T12:46:24;100762.22;;;12.99;100.00
54042;BME280;41156;51.508;5.406;2023-11-19T12:49:25;100762.00;;;13.01;100.00
54042;BME280;41156;51.508;5.406;2023-11-19T12:52:25;100751.16;;;13.01;100.00
54042;BME280;41156;51.508;5.406;2023-11-19T12:55:29;100752.88;;;12.95;100.00
54042;BME280;41156;51.508;5.406;2023-11-19T12:58:31;100757.16;;;12.91;100.00
54042;BME280;41156;51.508;5.406;2023-11-19T13:01:32;100756.78;;;12.87;100.00
54042;BME280;41156;51.508;5.406;2023-11-19T13:04:35;100741.78;;;12.85;100.00
54042;BME280;41156;51.508;5.406;2023-11-19T13:07:36;100748.50;;;12.82;100.00
54042;BME280;41156;51.508;5.406;2023-11-19T13:13:55;100746.41;;;12.84;100.00
54042;BME280;41156;51.508;5.406;2023-11-19T13:16:55;100768.00;;;12.91;100.00
54042;BME280;41156;51.508;5.406;2023-11-19T13:19:55;100770.59;;;12.98;100.00
54042;BME280;41156;51.508;5.406;2023-11-19T13:23:01;100769.03;;;12.90;100.00
54042;BME280;41156;51.508;5.406;2023-11-19T13:26:02;100763.59;;;12.78;100.00
54042;BME280;41156;51.508;5.406;2023-11-19T13:29:04;100745.88;;;12.75;100.00
54042;BME280;41156;51.508;5.406;2023-11-19T13:32:04;100754.72;;;12.71;100.00
54042;BME280;41156;51.508;5.406;2023-11-19T13:35:05;100744.22;;;12.63;100.00
54042;BME280;41156;51.508;5.406;2023-11-19T13:38:08;100741.16;;;12.59;100.00
54042;BME280;41156;51.508;5.406;2023-11-19T13:41:09;100739.13;;;12.54;100.00
54042;BME280;41156;51.508;5.406;2023-11-19T13:44:10;100744.41;;;12.49;100.00
54042;BME280;41156;51.508;5.406;2023-11-19T13:47:11;100745.09;;;12.45;100.00
54042;BME280;41156;51.508;5.406;2023-11-19T13:50:13;100739.75;;;12.38;100.00
54042;BME280;41156;51.508;5.406;2023-11-19T13:53:14;100732.69;;;12.37;100.00
54042;BME280;41156;51.508;5.406;2023-11-19T13:56:14;100734.94;;;12.40;100.00
54042;BME280;41156;51.508;5.406;2023-11-19T13:59:15;100744.03;;;12.46;100.00
54042;BME280;41156;51.508;5.406;2023-11-19T14:02:15;100730.63;;;12.51;100.00
54042;BME280;41156;51.508;5.406;2023-11-19T14:05:15;100717.66;;;12.53;100.00
54042;BME280;41156;51.508;5.406;2023-11-19T14:08:19;100732.94;;;12.47;100.00
54042;BME280;41156;51.508;5.406;2023-11-19T14:11:19;100732.94;;;12.47;100.00
54042;BME280;41156;51.508;5.406;2023-11-19T14:14:19;100740.25;;;12.47;100.00
54042;BME280;41156;51.508;5.406;2023-11-19T14:17:20;100741.25;;;12.52;100.00
54042;BME280;41156;51.508;5.406;2023-11-19T14:20:20;100729.78;;;12.50;100.00
54042;BME280;41156;51.508;5.406;2023-11-19T14:23:21;100719.88;;;12.44;100.00
54042;BME280;41156;51.508;5.406;2023-11-19T14:26:21;100724.22;;;12.45;100.00
54042;BME280;41156;51.508;5.406;2023-11-19T14:29:21;100718.34;;;12.48;100.00
54042;BME280;41156;51.508;5.406;2023-11-19T14:32:21;100722.50;;;12.51;100.00
54042;BME280;41156;51.508;5.406;2023-11-19T14:35:22;100717.31;;;12.49;100.00
54042;BME280;41156;51.508;5.406;2023-11-19T14:38:22;100711.75;;;12.44;100.00
54042;BME280;41156;51.508;5.406;2023-11-19T14:41:23;100725.75;;;12.41;100.00
54042;BME280;41156;51.508;5.406;2023-11-19T14:44:23;100721.84;;;12.37;100.00
54042;BME280;41156;51.508;5.406;2023-11-19T14:47:24;100720.88;;;12.31;100.00
54042;BME280;41156;51.508;5.406;2023-11-19T14:50:24;100720.97;;;12.25;100.00
54042;BME280;41156;51.508;5.406;2023-11-19T14:53:25;100717.69;;;12.23;100.00
54042;BME280;41156;51.508;5.406;2023-11-19T14:56:26;100720.25;;;12.17;100.00
54042;BME280;41156;51.508;5.406;2023-11-19T14:59:26;100708.78;;;12.15;100.00
54042;BME280;41156;51.508;5.406;2023-11-19T15:02:27;100708.66;;;12.10;100.00
54042;BME280;41156;51.508;5.406;2023-11-19T15:05:27;100711.66;;;12.02;100.00
54042;BME280;41156;51.508;5.406;2023-11-19T15:08:29;100709.88;;;11.96;100.00
54042;BME280;41156;51.508;5.406;2023-11-19T15:11:30;100705.78;;;11.87;100.00
54042;BME280;41156;51.508;5.406;2023-11-19T15:14:30;100708.56;;;11.80;100.00
54042;BME280;41156;51.508;5.406;2023-11-19T15:17:31;100714.06;;;11.73;100.00
54042;BME280;41156;51.508;5.406;2023-11-19T15:20:31;100709.91;;;11.71;100.00
54042;BME280;41156;51.508;5.406;2023-11-19T15:23:31;100711.88;;;11.63;100.00
54042;BME280;41156;51.508;5.406;2023-11-19T15:26:32;100716.69;;;11.61;100.00
54042;BME280;41156;51.508;5.406;2023-11-19T15:29:32;100711.72;;;11.58;100.00
54042;BME280;41156;51.508;5.406;2023-11-19T15:32:34;100715.09;;;11.54;100.00
54042;BME280;41156;51.508;5.406;2023-11-19T15:35:35;100713.91;;;11.50;100.00
54042;BME280;41156;51.508;5.406;2023-11-19T15:38:36;100701.41;;;11.48;100.00
54042;BME280;41156;51.508;5.406;2023-11-19T15:41:36;100704.56;;;11.45;100.00
54042;BME280;41156;51.508;5.406;2023-11-19T15:44:37;100705.41;;;11.46;100.00
54042;BME280;41156;51.508;5.406;2023-11-19T15:47:38;100705.66;;;11.44;100.00
54042;BME280;41156;51.508;5.406;2023-11-19T15:50:39;100699.38;;;11.44;100.00
54042;BME280;41156;51.508;5.406;2023-11-19T15:53:39;100709.38;;;11.43;100.00
54042;BME280;41156;51.508;5.406;2023-11-19T15:56:39;100703.16;;;11.43;100.00